Time;durP1;ratioP1;P1;durP2;ratioP2;P2;SDS_P1;SDS_P2;PMS_P1;PMS_P2;Temp;Humidity;BMP_temperature;BMP_pressure;BME280_temperature;BME280_humidity;BME280_pressure;Samples;Min_cycle;Max_cycle;Signal;HPM_P1;HPM_P2
2024/04/24 00:00:20;;;;;;;6.00;4.57;;;13.10;99.90;;;13.56;49.70;100812.19;5131043;26;98979;-41
2024/04/24 00:02:45;;;;;;;6.67;4.40;;;13.10;99.90;;;13.68;48.86;100808.13;5135522;26;99300;-43
2024/04/24 00:05:11;;;;;;;4.97;3.70;;;13.30;99.90;;;13.60;49.49;100802.34;5133020;26;99068;-38
2024/04/24 00:07:37;;;;;;;9.83;3.90;;;13.20;99.90;;;13.18;51.16;100802.44;5145544;26;95582;-39
2024/04/24 00:10:04;;;;;;;6.67;3.30;;;12.90;99.90;;;12.98;52.50;100797.97;5135319;26;95501;-43
2024/04/24 00:12:29;;;;;;;5.50;3.30;;;12.70;99.90;;;12.83;53.07;100799.50;5140566;26;95135;-37
2024/04/24 00:14:55;;;;;;;6.07;3.47;;;12.50;99.90;;;12.56;53.36;100801.53;5136230;26;102299;-42
2024/04/24 00:17:21;;;;;;;3.40;2.80;;;12.30;99.90;;;12.51;53.89;100795.56;5126480;26;108769;-41
2024/04/24 00:19:47;;;;;;;4.23;3.10;;;12.30;99.90;;;12.55;53.65;100788.34;5136992;26;94559;-40
2024/04/24 00:22:13;;;;;;;5.17;2.90;;;12.20;99.90;;;12.60;53.00;100779.31;5129065;26;95779;-41
2024/04/24 00:24:38;;;;;;;5.63;3.60;;;12.40;99.90;;;12.53;53.77;100780.47;5134042;26;96544;-40
2024/04/24 00:27:04;;;;;;;6.70;3.83;;;12.30;99.90;;;12.45;53.66;100780.81;5135533;26;93548;-43
2024/04/24 00:29:31;;;;;;;6.10;3.50;;;12.20;99.90;;;12.28;54.81;100785.06;5134865;26;99413;-43
2024/04/24 00:32:00;;;;;;;4.67;3.27;;;12.00;99.90;;;12.03;55.86;100787.84;5136590;26;101879;-43
2024/04/24 00:34:26;;;;;;;8.60;3.03;;;11.80;99.90;;;12.08;54.66;100775.28;5133886;26;94189;-39
2024/04/24 00:36:52;;;;;;;5.23;2.93;;;11.80;99.90;;;12.15;54.45;100772.34;5136992;26;97973;-44
2024/04/24 00:39:18;;;;;;;5.60;3.27;;;11.80;99.90;;;12.17;54.25;100765.22;5135381;26;102185;-43
2024/04/24 00:41:43;;;;;;;5.00;2.60;;;11.90;99.90;;;12.24;54.39;100770.25;5133858;26;102688;-40
2024/04/24 00:44:09;;;;;;;5.03;2.50;;;11.90;99.90;;;12.17;54.00;100764.34;5134562;26;94610;-44
2024/04/24 00:46:36;;;;;;;4.23;3.10;;;11.80;99.90;;;12.24;54.07;100763.16;5135498;26;105369;-45
2024/04/24 00:49:02;;;;;;;4.67;2.80;;;11.90;99.90;;;12.13;55.13;100774.16;5128249;26;107752;-38
2024/04/24 00:51:29;;;;;;;3.17;2.33;;;11.90;99.90;;;12.18;54.81;100760.78;5140665;26;95396;-42
2024/04/24 00:53:58;;;;;;;5.00;2.97;;;11.90;99.90;;;12.22;54.72;100757.09;5137202;26;94191;-41
2024/04/24 00:56:24;;;;;;;3.93;2.53;;;11.90;99.90;;;12.00;55.45;100761.50;5138465;26;99076;-42
2024/04/24 00:58:50;;;;;;;4.10;2.90;;;11.80;99.90;;;12.08;55.16;100760.28;5138890;26;116313;-42
2024/04/24 01:01:18;;;;;;;7.47;2.90;;;11.80;99.90;;;12.02;55.39;100763.19;5131864;27;103781;-42
2024/04/24 01:03:44;;;;;;;4.07;2.60;;;11.70;99.90;;;11.96;55.55;100760.78;5137492;26;102015;-42
2024/04/24 01:06:09;;;;;;;3.50;2.27;;;11.60;99.90;;;12.03;54.69;100767.56;5119227;26;96799;-39
2024/04/24 01:08:35;;;;;;;5.70;2.67;;;11.60;99.90;;;12.02;54.61;100757.91;5134555;26;109300;-41
2024/04/24 01:11:01;;;;;;;6.97;2.50;;;11.70;99.90;;;11.95;55.14;100759.06;5123465;26;103572;-42
2024/04/24 01:13:27;;;;;;;6.70;2.43;;;11.60;99.90;;;11.89;55.58;100754.03;5132549;26;94485;-39
2024/04/24 01:16:07;;;;;;;3.83;2.67;;;11.60;99.90;;;11.94;55.37;100749.41;5130681;26;96705;-43
2024/04/24 01:18:38;;;;;;;3.77;2.10;;;11.60;99.90;;;11.86;55.50;100754.13;5133954;26;96590;-42
2024/04/24 01:21:09;;;;;;;4.57;2.30;;;11.60;99.90;;;11.49;56.03;100742.31;5133680;26;94864;-39
2024/04/24 01:23:46;;;;;;;2.60;2.07;;;11.30;99.90;;;11.63;55.81;100742.66;5161511;26;93533;-37
2024/04/24 01:26:34;;;;;;;6.13;1.80;;;11.30;99.90;;;11.60;56.23;100737.47;5194841;26;96219;-43
2024/04/24 01:29:00;;;;;;;3.93;1.83;;;11.30;99.90;;;11.64;55.62;100738.22;5174069;26;101002;-41
2024/04/24 01:31:26;;;;;;;4.07;2.03;;;11.30;99.90;;;11.69;55.70;100743.31;5193667;26;115064;-40
2024/04/24 01:33:52;;;;;;;2.67;1.90;;;11.30;99.90;;;11.67;55.50;100745.16;5182985;26;93593;-43
2024/04/24 01:36:17;;;;;;;6.70;2.37;;;11.30;99.90;;;11.70;55.88;100740.59;5212312;26;93648;-36
2024/04/24 01:38:43;;;;;;;8.13;2.73;;;11.30;99.90;;;11.90;54.72;100729.31;5192330;26;108237;-45
2024/04/24 01:41:09;;;;;;;2.67;1.90;;;11.40;99.90;;;11.86;54.71;100741.78;5189165;26;108600;-40
2024/04/24 01:43:36;;;;;;;2.83;1.97;;;11.50;99.90;;;11.69;55.56;100738.88;5184131;26;93306;-41
2024/04/24 01:46:03;;;;;;;4.47;1.73;;;11.30;99.90;;;11.84;54.88;100729.53;5194798;26;101535;-40
2024/04/24 01:48:29;;;;;;;4.63;2.00;;;11.40;99.90;;;11.96;54.21;100729.03;5189382;26;102100;-39
2024/04/24 01:50:54;;;;;;;3.33;1.93;;;11.60;99.90;;;12.00;54.26;100725.34;5190793;26;114573;-34
2024/04/24 01:53:20;;;;;;;4.07;1.77;;;11.60;99.90;;;12.03;54.22;100719.97;5179512;26;93486;-41
2024/04/24 01:55:46;;;;;;;5.27;2.20;;;11.60;99.90;;;12.09;54.05;100725.00;5191102;26;98135;-39
2024/04/24 01:58:12;;;;;;;5.30;1.77;;;11.60;99.90;;;12.13;54.04;100715.13;5176899;26;100730;-40
2024/04/24 02:00:37;;;;;;;3.23;1.73;;;11.60;99.90;;;12.08;53.54;100709.19;5185889;26;95451;-42
2024/04/24 02:03:03;;;;;;;3.90;2.00;;;11.60;99.90;;;12.35;53.60;100705.41;5189886;26;95148;-38
2024/04/24 02:05:29;;;;;;;2.80;1.77;;;11.70;99.90;;;12.38;53.45;100699.13;5192069;26;93380;-38
2024/04/24 02:07:55;;;;;;;3.93;1.63;;;11.80;99.90;;;12.51;53.07;100700.31;5196871;26;95769;-41
2024/04/24 02:10:21;;;;;;;2.80;1.60;;;11.90;99.90;;;12.46;53.02;100707.59;5188465;26;104077;-41
2024/04/24 02:12:46;;;;;;;1.97;1.47;;;11.90;99.90;;;12.51;52.31;100700.31;5203578;26;93724;-37
2024/04/24 02:15:12;;;;;;;2.27;1.30;;;12.00;99.90;;;12.55;51.96;100685.16;5199009;26;95796;-39
2024/04/24 02:17:38;;;;;;;5.60;1.80;;;12.00;99.90;;;12.52;52.90;100696.75;5179238;26;98091;-38
2024/04/24 02:20:04;;;;;;;2.40;1.10;;;11.90;99.90;;;12.53;52.43;100687.88;5194129;26;121783;-43
2024/04/24 02:22:30;;;;;;;4.47;1.60;;;11.90;99.90;;;12.67;52.32;100685.50;5181200;26;93633;-38
2024/04/24 02:27:40;;;;;;;3.73;1.50;;;12.10;99.90;;;12.78;51.49;100683.25;5185487;26;93791;-42
2024/04/24 02:30:07;;;;;;;4.20;1.30;;;12.20;99.90;;;12.93;51.87;100678.19;5181168;26;118511;-39
2024/04/24 02:32:32;;;;;;;2.57;1.10;;;12.20;99.90;;;12.92;51.33;100679.13;5186936;26;93655;-42
2024/04/24 02:34:58;;;;;;;2.77;1.40;;;12.30;99.90;;;12.96;50.78;100680.69;5186237;26;93403;-43
2024/04/24 02:37:24;;;;;;;0.93;0.83;;;12.30;99.90;;;13.00;50.86;100679.63;5185254;26;115019;-41
2024/04/24 02:39:50;;;;;;;5.30;0.90;;;12.40;99.90;;;12.95;51.30;100673.69;5188302;26;95145;-41
2024/04/24 02:42:15;;;;;;;2.83;0.77;;;12.30;99.90;;;12.97;51.04;100679.75;5182214;26;93735;-40
2024/04/24 02:44:41;;;;;;;2.13;0.80;;;12.30;99.90;;;12.90;51.17;100671.25;5186047;26;93226;-41
2024/04/24 02:47:07;;;;;;;0.97;0.60;;;12.20;99.90;;;12.78;50.19;100672.66;5189385;26;95954;-42
2024/04/24 02:49:33;;;;;;;3.47;0.97;;;12.20;99.90;;;12.66;51.67;100673.19;5183191;26;95206;-43
2024/04/24 02:51:59;;;;;;;1.57;0.80;;;12.00;99.90;;;12.74;51.85;100665.78;5195278;26;105372;-41
2024/04/24 02:54:24;;;;;;;2.87;0.90;;;12.10;99.90;;;12.70;51.91;100663.31;5179985;26;104218;-39
2024/04/24 02:56:50;;;;;;;2.80;0.93;;;12.10;99.90;;;12.67;51.62;100652.88;5188594;26;106696;-42
2024/04/24 02:59:16;;;;;;;4.30;1.10;;;12.00;99.90;;;12.81;51.79;100655.78;5179404;26;95816;-41
2024/04/24 03:01:42;;;;;;;6.87;1.37;;;12.20;99.90;;;12.76;50.61;100658.63;5167207;27;100974;-35
2024/04/24 03:04:07;;;;;;;1.80;0.83;;;12.20;99.90;;;12.91;51.67;100657.09;5190415;26;96424;-40
2024/04/24 03:06:33;;;;;;;2.07;0.97;;;12.40;99.90;;;12.98;50.82;100652.34;5178720;26;114542;-41
2024/04/24 03:08:59;;;;;;;5.07;0.93;;;12.50;99.90;;;12.78;49.44;100651.47;5183290;26;118117;-41
2024/04/24 03:11:24;;;;;;;1.70;1.07;;;12.40;99.90;;;12.73;51.04;100653.47;5178207;26;93960;-38
2024/04/24 03:13:50;;;;;;;2.80;0.70;;;12.20;99.90;;;12.64;50.80;100651.22;5193994;26;93663;-41
2024/04/24 03:16:16;;;;;;;1.53;0.80;;;12.10;99.90;;;12.71;51.28;100647.38;5187326;26;113758;-39
2024/04/24 03:18:44;;;;;;;1.43;1.00;;;12.10;99.90;;;12.61;51.80;100647.88;5171805;26;112325;-42
2024/04/24 03:21:20;;;;;;;4.10;1.03;;;11.90;99.90;;;12.53;50.60;100640.25;5178920;26;93204;-41
2024/04/24 03:23:45;;;;;;;1.23;0.90;;;11.90;99.90;;;12.59;51.36;100644.44;5180171;26;93709;-37
2024/04/24 03:26:11;;;;;;;3.80;0.87;;;11.90;99.90;;;12.66;51.94;100641.44;5185227;26;109352;-38
2024/04/24 03:28:38;;;;;;;1.17;0.80;;;12.00;99.90;;;12.61;50.35;100630.19;5189715;26;111779;-40
2024/04/24 03:31:04;;;;;;;5.63;0.70;;;12.00;99.90;;;12.49;50.90;100622.81;5182481;26;96498;-37
2024/04/24 03:33:30;;;;;;;2.33;0.83;;;11.90;99.90;;;12.50;50.86;100629.81;5179805;26;103818;-38
2024/04/24 03:35:55;;;;;;;4.00;0.90;;;11.80;99.90;;;12.60;51.54;100625.84;5185566;26;94813;-41
2024/04/24 03:38:21;;;;;;;1.33;1.07;;;11.90;99.90;;;12.57;51.17;100623.31;5190101;26;122707;-38
2024/04/24 03:40:47;;;;;;;1.20;0.63;;;11.90;99.90;;;12.58;51.67;100627.66;5192672;26;109044;-42
2024/04/24 03:43:13;;;;;;;5.93;0.80;;;11.90;99.90;;;12.55;51.96;100625.16;5187194;26;109315;-36
2024/04/24 03:45:38;;;;;;;2.27;0.77;;;11.80;99.90;;;12.53;51.20;100624.38;5184915;26;105204;-35
2024/04/24 03:48:05;;;;;;;3.50;0.93;;;11.90;99.90;;;12.61;51.99;100627.56;5181505;26;113762;-41
2024/04/24 03:50:31;;;;;;;4.50;0.93;;;11.90;99.90;;;12.49;51.76;100628.94;5186697;26;93308;-35
2024/04/24 03:52:57;;;;;;;1.33;0.70;;;11.80;99.90;;;12.37;51.95;100631.28;5177436;26;93062;-42
2024/04/24 03:55:22;;;;;;;1.90;0.87;;;11.70;99.90;;;12.36;52.94;100621.63;5189205;26;106163;-41
2024/04/24 03:57:48;;;;;;;2.27;0.73;;;11.60;99.90;;;12.33;52.45;100616.47;5179714;26;112280;-40
2024/04/24 04:00:14;;;;;;;4.93;0.90;;;11.60;99.90;;;12.47;52.52;100608.78;5176839;26;99881;-39
2024/04/24 04:02:40;;;;;;;2.30;0.90;;;11.70;99.90;;;12.31;51.83;100613.03;5175951;26;95899;-38
2024/04/24 04:05:06;;;;;;;2.20;0.60;;;11.60;99.90;;;12.27;52.50;100608.78;5181303;26;93949;-38
2024/04/24 04:07:31;;;;;;;1.23;0.83;;;11.60;99.90;;;12.27;52.93;100606.13;5174849;26;121595;-43
2024/04/24 04:09:57;;;;;;;2.90;1.10;;;11.60;99.90;;;12.14;51.98;100609.31;5178865;26;93664;-39
2024/04/24 04:12:23;;;;;;;2.53;0.97;;;11.60;99.90;;;11.91;51.02;100598.88;5178810;26;93423;-42
2024/04/24 04:14:48;;;;;;;2.33;0.83;;;11.50;99.90;;;11.86;52.93;100591.13;5188792;26;104320;-37
2024/04/24 04:17:14;;;;;;;2.20;0.80;;;11.40;99.90;;;11.79;52.88;100594.09;5177284;26;96887;-38
2024/04/24 04:19:40;;;;;;;1.97;0.83;;;11.30;99.90;;;11.62;51.82;100592.13;5180527;26;94236;-42
2024/04/24 04:22:06;;;;;;;1.50;0.93;;;11.30;99.90;;;11.87;53.75;100599.94;5172118;26;98543;-41
2024/04/24 04:24:31;;;;;;;1.30;0.60;;;11.40;99.90;;;11.75;53.41;100592.47;5192610;26;113842;-39
2024/04/24 04:26:57;;;;;;;2.07;0.80;;;11.30;99.90;;;11.88;53.33;100593.72;5180463;26;106936;-40
2024/04/24 04:29:23;;;;;;;1.87;0.60;;;11.40;99.90;;;11.89;51.90;100587.50;5184127;26;93336;-40
2024/04/24 04:31:49;;;;;;;1.93;0.60;;;11.40;99.90;;;12.02;51.14;100585.19;5183705;26;93463;-38
2024/04/24 04:34:15;;;;;;;0.87;0.50;;;11.60;99.90;;;12.01;52.36;100583.47;5174184;26;115331;-39
2024/04/24 04:36:41;;;;;;;2.53;0.90;;;11.50;99.90;;;12.08;52.91;100579.63;5178726;26;104641;-41
2024/04/24 04:39:06;;;;;;;3.50;0.80;;;11.50;99.90;;;12.06;52.89;100577.06;5181016;26;104084;-40
2024/04/24 04:41:32;;;;;;;2.00;0.73;;;11.50;99.90;;;11.94;51.99;100571.44;5184800;26;93332;-40
2024/04/24 04:43:58;;;;;;;4.40;1.13;;;11.40;99.90;;;11.82;50.71;100580.75;5156044;26;112282;-37
2024/04/24 04:46:23;;;;;;;1.60;1.03;;;11.40;99.90;;;11.60;50.35;100589.53;5179717;26;99243;-44
2024/04/24 04:48:49;;;;;;;1.70;0.77;;;11.40;99.90;;;11.33;51.49;100577.44;5186523;27;93802;-42
2024/04/24 04:51:15;;;;;;;2.10;0.70;;;11.10;99.90;;;11.24;51.49;100576.00;5167249;26;98960;-41
2024/04/24 04:53:41;;;;;;;4.80;1.00;;;11.10;99.90;;;11.38;53.03;100575.47;5193339;26;119057;-37
2024/04/24 04:56:07;;;;;;;2.43;0.87;;;11.10;99.90;;;11.37;52.17;100564.97;5174615;26;96921;-38
2024/04/24 04:58:33;;;;;;;4.60;0.57;;;11.10;99.90;;;11.37;52.33;100571.09;5180051;26;93280;-39
2024/04/24 05:00:58;;;;;;;6.97;0.93;;;11.10;99.90;;;11.44;54.60;100567.31;5168553;26;93489;-42
2024/04/24 05:03:24;;;;;;;2.83;0.70;;;11.10;99.90;;;11.28;51.99;100576.75;5182366;26;114544;-40
2024/04/24 05:05:50;;;;;;;1.53;0.90;;;11.10;99.90;;;11.30;53.54;100572.28;5223436;26;99884;-43
2024/04/24 05:08:16;;;;;;;2.00;0.70;;;11.00;99.90;;;11.12;51.59;100576.47;5176557;26;95562;-35
2024/04/24 05:10:41;;;;;;;3.57;0.70;;;11.00;99.90;;;11.32;54.61;100579.22;5181282;26;93373;-39
2024/04/24 05:13:11;;;;;;;1.27;0.60;;;11.00;99.90;;;11.28;52.78;100576.75;5157901;26;117097;-35
2024/04/24 05:15:38;;;;;;;2.13;0.60;;;11.00;99.90;;;11.33;53.58;100569.50;5156037;26;93790;-38
2024/04/24 05:18:05;;;;;;;1.50;0.50;;;11.00;99.90;;;11.32;53.80;100573.06;5188070;26;93206;-39
2024/04/24 05:20:32;;;;;;;0.50;0.50;;;11.10;99.90;;;11.26;53.99;100571.53;5193847;26;98118;-36
2024/04/24 05:23:04;;;;;;;1.57;0.80;;;11.00;99.90;;;11.08;52.68;100568.75;5168810;26;95076;-41
2024/04/24 05:25:35;;;;;;;4.03;0.63;;;10.90;99.90;;;11.19;53.51;100566.56;5181243;26;94993;-39
2024/04/24 05:30:49;;;;;;;4.33;1.17;;;10.90;99.90;;;11.15;55.12;100572.91;5162969;26;93498;-33
2024/04/24 05:33:14;;;;;;;3.20;1.03;;;10.80;99.90;;;11.25;54.32;100561.03;5181348;26;105603;-40
2024/04/24 05:35:40;;;;;;;1.77;0.97;;;10.90;99.90;;;10.76;53.63;100562.94;5190085;26;114478;-41
2024/04/24 05:38:06;;;;;;;1.10;0.60;;;10.70;99.90;;;10.48;54.53;100559.59;5189989;26;93426;-39
2024/04/24 05:40:32;;;;;;;2.93;0.93;;;10.50;99.90;;;10.57;54.56;100551.38;5182233;26;106174;-41
2024/04/24 05:42:58;;;;;;;2.20;1.00;;;10.50;99.90;;;10.69;54.02;100546.47;5206553;26;97146;-37
2024/04/24 05:45:24;;;;;;;3.87;0.90;;;10.60;99.90;;;10.85;53.77;100554.69;5179768;26;95725;-41
2024/04/24 05:47:49;;;;;;;1.67;1.00;;;10.70;99.90;;;10.72;53.40;100556.06;5192157;26;93877;-41
2024/04/24 05:50:15;;;;;;;1.03;0.90;;;10.60;99.90;;;10.75;54.78;100548.03;5184513;26;93703;-38
2024/04/24 05:52:41;;;;;;;1.40;0.73;;;10.60;99.90;;;10.49;54.08;100549.00;5186246;26;113755;-41
2024/04/24 05:55:09;;;;;;;3.43;1.30;;;10.50;99.90;;;10.68;53.31;100549.16;5185735;26;93874;-43
2024/04/24 05:57:35;;;;;;;3.07;0.70;;;10.60;99.90;;;10.84;56.20;100555.56;5166022;27;93424;-39
2024/04/24 06:00:03;;;;;;;3.53;0.87;;;10.60;99.90;;;10.41;52.34;100546.66;5176283;26;93054;-39
2024/04/24 06:02:29;;;;;;;1.47;0.93;;;10.50;99.90;;;10.20;53.06;100547.38;5189560;26;95726;-38
2024/04/24 06:04:55;;;;;;;1.47;0.90;;;10.30;99.90;;;10.36;53.04;100538.03;5189722;26;95255;-41
2024/04/24 06:07:20;;;;;;;2.10;1.40;;;10.30;99.90;;;10.33;54.25;100540.78;5200390;26;100139;-40
2024/04/24 06:09:46;;;;;;;2.77;1.20;;;10.30;99.90;;;10.13;54.39;100535.34;5153048;27;93572;-41
2024/04/24 06:12:12;;;;;;;4.10;1.20;;;10.20;99.90;;;10.14;54.75;100537.94;5178000;26;96410;-37
2024/04/24 06:14:42;;;;;;;2.50;1.20;;;10.10;99.90;;;9.88;55.48;100524.81;5166099;26;95229;-43
2024/04/24 06:17:08;;;;;;;4.73;1.50;;;10.00;99.90;;;9.95;55.41;100525.44;5180814;26;93379;-35
2024/04/24 06:19:33;;;;;;;3.57;1.30;;;10.00;99.90;;;10.08;55.23;100526.75;5177508;26;93408;-42
2024/04/24 06:27:14;;;;;;;2.07;1.10;;;10.30;99.90;;;10.49;55.48;100527.91;1380382;24;93917;-35
2024/04/24 06:41:36;;;;;;;3.47;1.10;;;10.40;99.90;;;10.68;55.27;100528.06;5007409;28;92767;-33
2024/04/24 07:23:50;;;;;;;2.00;1.17;;;10.30;99.90;;;10.06;52.64;100503.06;4854882;26;94759;-37
2024/04/24 07:26:58;;;;;;;4.23;0.83;;;10.20;99.90;;;10.22;54.95;100490.22;4813886;26;95361;-34
2024/04/24 07:33:55;;;;;;;4.07;0.70;;;10.50;99.90;;;10.50;50.66;100497.13;5175686;26;93146;-34
2024/04/24 07:36:24;;;;;;;1.33;0.90;;;10.50;99.90;;;10.76;52.25;100489.06;4386863;27;2697880;-34
2024/04/24 07:53:47;;;;;;;2.67;0.87;;;10.60;99.90;;;10.77;52.12;100496.06;4850586;27;2165524;-34
2024/04/24 11:35:07;;;;;;;;;;;;;;;;;;;;;
2024/04/24 14:19:22;;;;;;;0.60;0.40;;;13.10;99.90;;;13.47;52.68;100280.03;4972791;22;3136815;-36
2024/04/24 14:56:53;;;;;;;1.00;0.50;;;14.30;99.90;;;14.40;47.78;100277.50;6186650;20;8865933;-40
2024/04/24 15:01:43;;;;;;;1.03;0.40;;;14.80;99.90;;;14.07;48.52;100274.13;4866855;26;96440;-35
2024/04/24 15:18:09;;;;;;;1.93;0.90;;;14.70;99.90;;;14.21;48.57;100255.63;6231805;20;1307044;-40
2024/04/24 15:21:06;;;;;;;1.00;0.70;;;14.40;99.90;;;13.95;48.48;100249.13;4498316;21;7161461;-38
2024/04/24 15:53:42;;;;;;;0.53;0.30;;;14.40;99.90;;;14.58;46.48;100241.94;4855478;26;96161;-39
2024/04/24 16:05:49;;;;;;;1.13;0.45;;;13.80;99.90;;;13.53;48.82;100223.19;1192930;28;10438369;-39
2024/04/24 16:09:27;;;;;;;2.13;0.82;;;13.60;99.90;;;13.44;48.75;100235.13;862664;32;31163950;-34
2024/04/24 16:29:54;;;;;;;1.40;0.50;;;13.00;99.90;;;13.01;49.71;100249.75;4226919;25;15221137;-34
2024/04/24 16:46:35;;;;;;;0.30;0.30;;;12.30;99.90;;;12.34;54.05;100287.56;6774292;20;93525;-37
2024/04/24 16:49:01;;;;;;;0.60;0.23;;;12.10;99.90;;;12.33;54.21;100283.22;6518489;21;1270887;-32
2024/04/24 16:51:27;;;;;;;0.20;0.20;;;12.10;99.90;;;12.38;53.79;100275.91;6528169;21;95310;-35
2024/04/24 16:53:59;;;;;;;0.87;0.60;;;12.00;99.90;;;12.36;54.63;100273.34;6581384;21;93346;-34
2024/04/24 16:56:31;;;;;;;0.30;0.17;;;11.90;99.90;;;12.19;54.75;100255.66;6521351;21;95524;-34
2024/04/24 17:02:52;;;;;;;0.77;0.67;;;11.80;99.90;;;11.94;55.78;100257.75;6543809;21;95947;-34
2024/04/24 17:06:12;;;;;;;1.73;0.63;;;11.70;99.90;;;11.88;56.18;100266.00;6177919;21;93594;-33
2024/04/24 17:08:41;;;;;;;1.80;0.40;;;11.60;99.90;;;11.66;56.59;100259.94;6116787;21;93162;-32
2024/04/24 17:11:12;;;;;;;0.73;0.50;;;11.50;99.90;;;11.60;56.69;100256.66;6260375;21;101948;-32
2024/04/24 17:13:55;;;;;;;1.93;0.73;;;11.40;99.90;;;11.60;56.46;100261.09;6553097;21;95283;-33
2024/04/24 17:16:26;;;;;;;1.53;0.70;;;11.40;99.90;;;11.47;56.73;100250.22;6337425;21;94515;-34
2024/04/24 17:18:52;;;;;;;3.30;0.40;;;11.30;99.90;;;11.72;56.15;100249.97;6531834;21;93597;-40
2024/04/24 17:21:18;;;;;;;0.60;0.50;;;11.40;99.90;;;11.73;56.12;100261.41;6429858;21;96762;-35
2024/04/24 17:23:43;;;;;;;1.47;0.83;;;11.60;99.90;;;11.81;55.86;100264.56;6531100;21;103562;-32
2024/04/24 17:26:17;;;;;;;0.87;0.60;;;11.60;99.90;;;11.73;56.82;100261.41;6498174;21;93999;-34
2024/04/24 17:28:50;;;;;;;1.00;0.80;;;11.60;99.90;;;11.76;56.22;100266.53;6554555;21;93641;-35
2024/04/24 17:31:29;;;;;;;1.47;0.30;;;11.60;99.90;;;11.82;56.36;100266.25;6373409;21;95784;-37
2024/04/24 17:34:07;;;;;;;3.30;0.43;;;11.60;99.90;;;11.73;57.09;100267.53;6268440;21;122317;-35
2024/04/24 17:36:33;;;;;;;3.00;0.40;;;11.50;99.90;;;11.76;56.39;100269.16;6233898;21;96680;-35
2024/04/24 17:39:01;;;;;;;3.20;0.50;;;11.60;99.90;;;11.77;57.03;100268.25;6325446;21;95751;-34
2024/04/24 17:41:52;;;;;;;0.93;0.67;;;11.60;99.90;;;11.93;56.01;100278.97;6336897;21;97489;-33
2024/04/24 17:57:42;;;;;;;;;;;;;;;;;;;;;
2024/04/24 18:00:41;;;;;;;5.37;0.87;;;12.80;99.90;;;12.80;53.48;100288.78;4966430;26;107319;-36
2024/04/24 18:06:53;;;;;;;1.07;0.80;;;12.50;99.90;;;12.64;53.66;100283.41;4857033;26;99898;-42
2024/04/24 18:09:39;;;;;;;2.00;0.33;;;12.40;99.90;;;12.20;54.04;100294.38;4903776;26;97951;-41
2024/04/24 18:12:30;;;;;;;2.00;1.00;;;12.10;99.90;;;12.18;55.30;100296.25;4665495;26;2464138;-38
2024/04/24 18:15:24;;;;;;;2.07;0.27;;;12.00;99.90;;;12.15;54.94;100301.69;4792466;26;99966;-42
2024/04/24 18:18:02;;;;;;;1.70;0.80;;;11.80;99.90;;;12.12;55.24;100306.25;4916804;26;98594;-42
2024/04/24 18:20:59;;;;;;;0.27;0.27;;;11.90;99.90;;;12.18;54.77;100306.84;5051486;26;94871;-41
2024/04/24 18:23:53;;;;;;;1.90;0.83;;;11.90;99.90;;;12.29;54.33;100313.38;4963444;26;99394;-46
2024/04/24 18:29:08;;;;;;;0.30;0.20;;;12.00;99.90;;;11.80;54.60;100313.91;4982725;25;93582;-35
2024/04/24 18:32:02;;;;;;;0.70;0.30;;;11.80;99.90;;;12.02;53.99;100310.28;4893013;26;97706;-37
2024/04/24 18:34:41;;;;;;;1.47;0.30;;;11.80;99.90;;;11.84;54.85;100314.59;4683952;26;101575;-35
2024/04/24 18:37:22;;;;;;;1.30;0.60;;;11.80;99.90;;;11.86;54.07;100316.28;4901464;26;99296;-36
2024/04/24 18:40:04;;;;;;;0.70;0.27;;;11.70;99.90;;;11.88;54.45;100319.69;4874777;26;95054;-35
2024/04/24 18:42:58;;;;;;;;;;;;;;;;;;;;;
2024/04/24 18:58:07;;;;;;;0.60;0.40;;;11.60;99.90;;;12.87;51.58;100321.09;5889788;20;3344037;-42
2024/04/24 19:17:18;;;;;;;;;;;;;;;;;;;;;
2024/04/24 19:36:38;;;;;;;0.77;0.40;;;13.30;99.90;;;13.16;49.20;100339.00;6638625;20;93661;-37
2024/04/24 19:53:03;;;;;;;2.70;0.73;;;13.00;99.90;;;13.56;49.04;100347.56;3638746;25;36323920;-34
2024/04/24 19:56:37;;;;;;;2.47;1.30;;;13.40;99.90;;;13.40;49.12;100353.66;4916241;26;103240;-31
2024/04/24 20:11:39;;;;;;;3.17;1.00;;;13.20;99.90;;;12.97;49.97;100359.41;4933821;25;96742;-42
2024/04/24 20:14:38;;;;;;;1.73;0.50;;;13.00;99.90;;;13.05;50.96;100357.25;4612573;27;98913;-40
2024/04/24 20:48:39;;;;;;;0.60;0.50;;;12.50;99.90;;;12.92;50.16;100374.69;6483674;20;96134;-32
2024/04/24 20:51:42;;;;;;;;;;;;;;;;;;;;;
2024/04/24 20:54:50;;;;;;;1.40;0.87;;;12.50;99.90;;;12.90;51.64;100376.56;5707018;21;112699;-33
2024/04/24 20:57:28;;;;;;;1.67;0.60;;;12.40;99.90;;;12.82;50.51;100393.66;5861487;21;98854;-34
